Time;durP1;ratioP1;P1;durP2;ratioP2;P2;SDS_P1;SDS_P2;PMS_P1;PMS_P2;Temp;Humidity;BMP_temperature;BMP_pressure;BME280_temperature;BME280_humidity;BME280_pressure;Samples;Min_cycle;Max_cycle;Signal;HPM_P1;HPM_P2
2022/07/29 00:00:39;;;;;;;2.97;1.85;;;;;;;19.80;48.55;101538.41;5074712;28;20401;-62
2022/07/29 00:03:04;;;;;;;3.05;2.17;;;;;;;19.62;49.08;101538.19;5074296;28;20036;-62
2022/07/29 00:05:30;;;;;;;4.35;1.90;;;;;;;19.56;49.36;101536.06;5091308;28;20024;-62
2022/07/29 00:07:58;;;;;;;3.53;1.88;;;;;;;19.60;48.83;101537.47;5096230;28;20032;-62
2022/07/29 00:10:23;;;;;;;3.83;2.00;;;;;;;19.63;48.93;101534.50;5092371;28;20027;-62
2022/07/29 00:12:49;;;;;;;3.83;1.95;;;;;;;19.44;49.53;101520.94;5090837;28;20093;-62
2022/07/29 00:15:15;;;;;;;2.75;1.90;;;;;;;19.53;49.27;101530.94;5092638;28;20048;-62
2022/07/29 00:17:41;;;;;;;4.65;1.75;;;;;;;19.56;49.52;101533.38;5093238;28;20040;-62
2022/07/29 00:20:09;;;;;;;4.72;2.30;;;;;;;19.41;50.18;101532.03;5090782;28;20040;-63
2022/07/29 00:22:37;;;;;;;6.17;2.50;;;;;;;19.48;49.96;101533.19;5091440;28;20471;-63
2022/07/29 00:25:04;;;;;;;7.40;1.77;;;;;;;19.39;50.09;101536.72;5092020;28;20024;-63
2022/07/29 00:27:30;;;;;;;3.13;2.13;;;;;;;19.39;50.22;101534.03;5104067;28;20490;-62
2022/07/29 00:29:55;;;;;;;4.85;2.08;;;;;;;19.50;49.81;101532.06;5091106;28;20073;-62
2022/07/29 00:32:20;;;;;;;5.50;2.20;;;;;;;19.49;50.36;101540.28;5090033;28;20050;-62
2022/07/29 00:37:35;;;;;;;6.25;2.13;;;;;;;19.57;49.80;101548.56;5091128;28;20093;-63
2022/07/29 00:40:00;;;;;;;5.60;2.17;;;;;;;19.53;49.73;101552.53;5091752;28;20035;-63
2022/07/29 00:42:26;;;;;;;3.10;2.08;;;;;;;19.36;50.60;101561.28;5074442;28;20054;-62
2022/07/29 00:44:51;;;;;;;2.78;2.20;;;;;;;19.42;49.96;101569.66;5091960;28;20475;-62
2022/07/29 00:47:17;;;;;;;5.95;2.33;;;;;;;19.44;50.56;101564.13;5091488;28;20032;-62
2022/07/29 00:49:45;;;;;;;6.97;2.17;;;;;;;19.39;50.37;101582.59;5090096;28;20111;-63
2022/07/29 00:52:11;;;;;;;6.40;2.30;;;;;;;19.40;50.25;101566.25;5074214;28;20086;-62
2022/07/29 00:54:39;;;;;;;7.10;2.38;;;;;;;19.45;50.91;101568.56;5091845;28;20032;-62
2022/07/29 00:57:06;;;;;;;5.45;2.75;;;;;;;19.37;50.91;101550.34;5093891;28;20031;-63
2022/07/29 00:59:31;;;;;;;6.97;2.38;;;;;;;19.40;52.23;101536.56;5092590;28;20032;-63
2022/07/29 01:01:57;;;;;;;5.75;2.22;;;;;;;19.47;53.47;101547.66;5093206;28;20050;-63
2022/07/29 01:04:22;;;;;;;4.63;2.33;;;;;;;19.38;54.67;101540.38;5090193;28;20047;-63
2022/07/29 01:06:49;;;;;;;3.55;2.25;;;;;;;19.29;54.93;101520.47;5092100;28;20039;-63
2022/07/29 01:09:15;;;;;;;8.73;2.20;;;;;;;19.27;55.22;101512.53;5094691;28;20081;-62
2022/07/29 01:11:43;;;;;;;4.20;1.90;;;;;;;19.27;56.23;101504.44;5089871;28;20027;-63
2022/07/29 01:14:09;;;;;;;6.90;2.47;;;;;;;19.28;57.70;101494.50;5092814;28;20119;-62
2022/07/29 01:16:57;;;;;;;3.47;2.08;;;;;;;19.24;57.26;101491.25;5074205;28;20055;-62
2022/07/29 01:19:30;;;;;;;6.15;2.35;;;;;;;19.15;57.28;101481.28;5093112;28;20074;-62
2022/07/29 01:22:09;;;;;;;5.72;2.60;;;;;;;19.06;56.59;101482.09;5091647;28;20051;-62
2022/07/29 01:24:40;;;;;;;3.55;2.70;;;;;;;18.98;57.82;101463.06;5090732;28;20027;-62
2022/07/29 01:27:43;;;;;;;5.97;2.50;;;;;;;18.93;56.62;101443.72;5090447;28;20502;-63
2022/07/29 01:30:08;;;;;;;4.88;3.08;;;;;;;18.71;57.67;101450.16;5091504;28;20052;-63
2022/07/29 01:32:36;;;;;;;7.30;3.33;;;;;;;18.69;58.38;101441.34;5088942;28;20482;-63
2022/07/29 01:35:06;;;;;;;6.38;3.28;;;;;;;18.59;58.40;101434.06;5089396;28;20031;-62
2022/07/29 01:38:00;;;;;;;7.72;3.88;;;;;;;18.57;58.15;101435.19;5090526;28;20020;-62
2022/07/29 01:40:38;;;;;;;10.27;4.38;;;;;;;18.46;57.67;101429.88;5091524;28;20064;-62
2022/07/29 01:43:10;;;;;;;8.32;4.30;;;;;;;18.39;58.88;101453.81;5091210;28;20153;-62
2022/07/29 01:45:43;;;;;;;8.10;3.75;;;;;;;18.35;58.87;101434.38;5090661;28;20062;-63
2022/07/29 01:48:33;;;;;;;7.57;3.42;;;;;;;18.34;58.82;101437.19;5089830;28;20092;-62
2022/07/29 01:51:07;;;;;;;5.18;3.05;;;;;;;18.34;59.46;101453.34;5090106;28;20032;-62
2022/07/29 01:53:38;;;;;;;4.07;2.78;;;;;;;18.38;58.75;101460.16;5089371;28;20017;-62
2022/07/29 01:56:06;;;;;;;6.13;3.00;;;;;;;18.44;59.20;101462.31;5092712;28;20020;-62
2022/07/29 01:58:32;;;;;;;5.65;3.13;;;;;;;18.31;59.57;101459.84;5091436;28;20028;-62
2022/07/29 02:00:59;;;;;;;4.10;2.95;;;;;;;18.39;59.57;101454.66;5090621;28;20048;-62
2022/07/29 02:03:26;;;;;;;6.10;2.65;;;;;;;18.33;59.53;101447.09;5088556;28;20118;-62
2022/07/29 02:05:55;;;;;;;5.00;3.20;;;;;;;18.30;59.22;101450.06;5089047;28;20028;-62
2022/07/29 02:08:22;;;;;;;6.65;3.13;;;;;;;18.26;59.62;101440.53;5091008;28;20072;-63
2022/07/29 02:10:52;;;;;;;4.50;3.00;;;;;;;18.25;59.62;101437.97;5092898;28;20031;-62
2022/07/29 02:13:21;;;;;;;6.90;3.00;;;;;;;18.31;59.57;101434.75;5090257;28;20024;-62
2022/07/29 02:15:52;;;;;;;5.63;2.90;;;;;;;18.18;60.37;101445.75;5090376;28;20088;-62
2022/07/29 02:18:20;;;;;;;4.35;3.00;;;;;;;18.22;60.09;101449.88;5092754;28;20259;-63
2022/07/29 02:20:49;;;;;;;5.75;2.85;;;;;;;18.28;59.88;101437.72;5092343;28;20020;-62
2022/07/29 02:23:19;;;;;;;15.55;3.42;;;;;;;18.24;59.88;101439.81;5092267;28;20062;-62
2022/07/29 02:25:48;;;;;;;7.25;3.25;;;;;;;18.29;59.63;101428.63;5091446;28;20024;-62
2022/07/29 02:28:14;;;;;;;;;;;;;;;18.49;58.55;101437.69;5090348;28;20467;-62
2022/07/29 02:30:41;;;;;;;6.40;3.05;;;;;;;18.24;59.71;101420.97;5091695;28;19918;-62
2022/07/29 02:33:09;;;;;;;8.30;3.00;;;;;;;18.16;59.84;101440.47;5091268;28;20397;-63
2022/07/29 02:35:36;;;;;;;5.38;3.00;;;;;;;18.14;59.73;101439.75;5090226;28;20024;-62
2022/07/29 02:40:51;;;;;;;5.47;2.97;;;;;;;18.25;59.65;101438.81;5090133;28;20543;-63
2022/07/29 02:43:18;;;;;;;4.30;2.63;;;;;;;18.18;59.94;101426.88;5089396;28;20023;-63
2022/07/29 02:45:49;;;;;;;4.18;3.05;;;;;;;18.21;59.63;101432.00;5089176;28;20028;-63
2022/07/29 02:48:16;;;;;;;8.77;3.17;;;;;;;18.16;59.90;101426.16;5089774;28;20020;-63
2022/07/29 02:50:50;;;;;;;5.75;3.15;;;;;;;18.24;59.50;101426.34;5092052;28;20039;-62
2022/07/29 02:53:24;;;;;;;5.00;2.90;;;;;;;18.08;59.61;101424.13;5091782;28;20012;-63
2022/07/29 02:55:58;;;;;;;6.00;3.00;;;;;;;18.22;59.51;101436.41;5093301;28;20036;-63
2022/07/29 02:58:30;;;;;;;7.15;3.20;;;;;;;18.19;59.63;101433.97;5089543;28;20052;-63
2022/07/29 03:01:02;;;;;;;5.20;2.92;;;;;;;18.28;59.47;101427.78;5090576;28;20101;-63
2022/07/29 03:03:32;;;;;;;6.22;3.50;;;;;;;18.31;59.48;101437.44;5094196;28;20028;-63
2022/07/29 03:06:00;;;;;;;6.38;3.05;;;;;;;18.15;59.94;101443.31;5095414;28;20032;-62
2022/07/29 03:08:27;;;;;;;5.47;3.08;;;;;;;18.19;59.77;101438.50;5096651;28;20076;-62
2022/07/29 03:10:53;;;;;;;6.35;3.10;;;;;;;18.22;59.70;101441.78;5094151;28;20593;-63
2022/07/29 03:13:20;;;;;;;4.57;3.08;;;;;;;18.16;59.69;101443.16;5093725;28;20028;-63
2022/07/29 03:15:46;;;;;;;6.85;3.00;;;;;;;18.16;60.12;101450.38;5092718;28;20031;-63
2022/07/29 03:18:13;;;;;;;4.65;3.08;;;;;;;18.04;60.64;101448.75;5094454;28;20028;-62
2022/07/29 03:20:39;;;;;;;4.05;2.92;;;;;;;17.98;60.42;101427.75;5091670;28;20102;-62
2022/07/29 03:23:04;;;;;;;6.22;3.15;;;;;;;17.96;60.41;101425.16;5091744;28;20166;-62
2022/07/29 03:25:30;;;;;;;5.40;2.92;;;;;;;18.05;60.51;101428.91;5100943;28;20039;-62
2022/07/29 03:27:57;;;;;;;8.05;3.13;;;;;;;18.03;60.06;101434.44;5093645;28;20020;-62
2022/07/29 03:30:23;;;;;;;6.55;3.10;;;;;;;18.09;60.14;101435.75;5096041;28;20059;-62
2022/07/29 03:32:50;;;;;;;6.15;3.10;;;;;;;17.93;60.78;101442.44;5093456;28;20032;-62
2022/07/29 03:35:22;;;;;;;3.80;2.83;;;;;;;17.95;60.42;101430.69;5093535;28;20031;-62
2022/07/29 03:37:48;;;;;;;4.15;3.00;;;;;;;18.01;60.62;101432.88;5075588;28;20028;-62
2022/07/29 03:40:19;;;;;;;5.75;3.00;;;;;;;17.96;60.52;101440.47;5091912;28;20093;-63
2022/07/29 03:42:48;;;;;;;8.85;3.78;;;;;;;17.97;60.28;101428.72;5092616;28;20214;-62
2022/07/29 03:45:18;;;;;;;4.90;2.95;;;;;;;17.99;60.01;101427.59;5093280;28;20486;-62
2022/07/29 03:47:51;;;;;;;5.60;2.67;;;;;;;17.92;60.15;101435.34;5091701;28;20023;-62
2022/07/29 03:50:21;;;;;;;7.57;2.85;;;;;;;17.90;60.08;101441.84;5094807;28;20102;-63
2022/07/29 03:52:47;;;;;;;6.25;3.15;;;;;;;17.80;60.49;101436.38;5092014;28;20020;-62
2022/07/29 03:55:14;;;;;;;5.53;3.10;;;;;;;17.88;60.59;101436.59;5094798;28;20024;-62
2022/07/29 03:57:41;;;;;;;5.57;3.00;;;;;;;17.86;60.16;101435.88;5092191;28;20024;-63
2022/07/29 04:00:08;;;;;;;7.93;3.28;;;;;;;17.83;60.25;101438.81;5091706;28;20380;-62
2022/07/29 04:02:34;;;;;;;4.65;2.60;;;;;;;17.75;60.24;101438.56;5092400;28;20031;-62
2022/07/29 04:05:02;;;;;;;6.20;3.20;;;;;;;17.65;60.68;101443.88;5093892;28;20394;-62
2022/07/29 04:07:28;;;;;;;4.70;2.88;;;;;;;17.61;61.05;101437.03;5092464;28;20024;-62
2022/07/29 04:09:54;;;;;;;4.90;2.83;;;;;;;17.69;60.84;101431.00;5090849;28;20032;-62
2022/07/29 04:12:20;;;;;;;5.25;2.85;;;;;;;17.66;60.80;101423.22;5055678;28;20024;-62
2022/07/29 04:14:46;;;;;;;3.97;2.88;;;;;;;17.63;61.17;101423.47;5092559;28;20035;-62
2022/07/29 04:17:13;;;;;;;4.57;2.60;;;;;;;17.63;61.11;101418.94;5098240;28;20027;-62
2022/07/29 04:19:39;;;;;;;4.70;3.45;;;;;;;17.60;60.93;101419.19;5103784;28;20402;-62
2022/07/29 04:22:04;;;;;;;6.20;3.10;;;;;;;17.58;61.20;101422.97;5100522;27;20039;-62
2022/07/29 04:24:29;;;;;;;4.90;2.65;;;;;;;17.42;61.76;101409.97;5092714;28;20034;-62
2022/07/29 04:26:55;;;;;;;4.65;2.85;;;;;;;17.59;61.49;101414.81;5094593;28;20114;-62
2022/07/29 04:29:20;;;;;;;6.82;2.97;;;;;;;17.62;61.34;101424.47;5090948;28;20131;-62
2022/07/29 04:31:46;;;;;;;5.45;3.05;;;;;;;17.60;61.44;101407.59;5075450;28;20035;-62
2022/07/29 04:34:12;;;;;;;5.03;2.63;;;;;;;17.67;61.26;101425.75;5072940;28;20490;-62
2022/07/29 04:36:38;;;;;;;5.72;3.33;;;;;;;17.74;61.24;101428.81;5091347;28;20074;-62
2022/07/29 04:39:03;;;;;;;6.20;2.70;;;;;;;17.68;61.46;101421.25;5090549;28;20031;-62
2022/07/29 04:41:31;;;;;;;5.95;3.42;;;;;;;17.68;61.33;101442.78;5091545;28;20028;-62
2022/07/29 04:43:56;;;;;;;6.22;3.03;;;;;;;17.68;61.58;101456.22;5092204;28;20407;-62
2022/07/29 04:46:22;;;;;;;3.45;2.63;;;;;;;17.58;62.06;101458.81;5092048;28;20086;-62
2022/07/29 04:48:48;;;;;;;5.00;3.40;;;;;;;17.53;62.56;101455.66;5091893;28;20036;-62
2022/07/29 04:51:15;;;;;;;5.88;3.40;;;;;;;17.47;62.56;101454.34;5093275;28;20032;-62
2022/07/29 04:53:40;;;;;;;3.83;3.10;;;;;;;17.48;62.55;101464.09;5093667;28;20023;-62
2022/07/29 04:56:06;;;;;;;8.52;3.60;;;;;;;17.42;62.85;101469.97;5093279;28;20028;-62
2022/07/29 04:58:34;;;;;;;7.43;3.67;;;;;;;17.45;63.05;101472.41;5091719;28;20038;-62
2022/07/29 05:01:02;;;;;;;6.15;3.60;;;;;;;17.53;62.99;101476.31;5091725;28;20090;-62
2022/07/29 05:03:27;;;;;;;5.25;3.28;;;;;;;17.54;63.09;101481.56;5091145;28;20061;-62
2022/07/29 05:05:53;;;;;;;6.68;3.53;;;;;;;17.51;63.00;101486.34;5092721;28;20048;-62
2022/07/29 05:08:18;;;;;;;7.25;3.42;;;;;;;17.54;63.27;101494.16;5072441;28;20032;-62
2022/07/29 05:10:44;;;;;;;5.32;3.75;;;;;;;17.59;63.18;101494.63;5091359;28;20038;-62
2022/07/29 05:13:10;;;;;;;8.52;3.90;;;;;;;17.61;63.26;101489.97;5075186;28;20028;-62
2022/07/29 05:15:36;;;;;;;4.65;3.40;;;;;;;17.58;63.60;101488.38;5091233;28;20047;-63
2022/07/29 05:18:02;;;;;;;7.75;4.07;;;;;;;17.46;63.53;101473.28;5089864;28;20020;-63
2022/07/29 05:20:29;;;;;;;6.10;3.90;;;;;;;17.57;63.38;101484.00;5091979;28;20422;-62
2022/07/29 05:22:59;;;;;;;7.82;4.32;;;;;;;17.56;63.43;101489.50;5092559;28;20027;-62
2022/07/29 05:25:28;;;;;;;6.40;4.20;;;;;;;17.57;63.16;101492.06;5089669;28;20028;-63
2022/07/29 05:27:54;;;;;;;;;;;;;;;17.77;62.03;101494.97;5090872;28;20051;-63
2022/07/29 05:30:21;;;;;;;5.25;3.47;;;;;;;17.52;63.95;101488.91;5091000;28;19912;-63
2022/07/29 05:32:47;;;;;;;5.07;3.80;;;;;;;17.51;63.90;101495.28;5093687;28;20068;-62
2022/07/29 05:35:13;;;;;;;8.13;4.25;;;;;;;17.48;64.42;101490.16;5089987;28;20016;-63
2022/07/29 05:37:39;;;;;;;5.43;3.80;;;;;;;17.46;63.83;101479.50;5093857;28;20050;-62
2022/07/29 05:40:05;;;;;;;5.18;3.83;;;;;;;17.37;64.53;101477.56;5090674;28;20020;-62
2022/07/29 05:42:31;;;;;;;6.00;4.32;;;;;;;17.42;64.71;101494.19;5091891;28;20039;-62
2022/07/29 05:44:57;;;;;;;8.65;4.30;;;;;;;17.35;65.03;101489.41;5090978;28;20024;-62
2022/07/29 05:47:23;;;;;;;6.72;4.07;;;;;;;17.43;65.01;101495.88;5090549;28;20031;-62
2022/07/29 05:49:50;;;;;;;6.20;4.38;;;;;;;17.52;64.51;101493.44;5090814;28;20387;-62
2022/07/29 05:52:15;;;;;;;10.27;4.53;;;;;;;17.52;64.31;101490.75;5090270;28;20016;-62
2022/07/29 05:54:41;;;;;;;6.00;4.30;;;;;;;17.55;64.21;101480.56;5072573;28;20483;-62
2022/07/29 05:57:07;;;;;;;7.00;4.45;;;;;;;17.59;64.37;101492.81;5091112;28;20031;-62
2022/07/29 05:59:36;;;;;;;8.38;4.93;;;;;;;17.43;64.75;101482.44;5089435;28;20475;-62
2022/07/29 06:02:04;;;;;;;6.68;4.70;;;;;;;17.54;64.71;101483.41;5093669;28;20028;-62
2022/07/29 06:04:30;;;;;;;9.70;5.32;;;;;;;17.51;64.51;101489.03;5092018;28;20497;-62
2022/07/29 06:06:56;;;;;;;8.45;4.68;;;;;;;17.47;64.85;101491.09;5089305;28;20028;-62
2022/07/29 06:09:22;;;;;;;9.00;5.60;;;;;;;17.60;64.09;101490.97;5089246;28;20023;-62
2022/07/29 06:11:47;;;;;;;10.95;5.68;;;;;;;17.63;63.76;101482.66;5090131;28;20435;-62
2022/07/29 06:14:14;;;;;;;8.50;5.18;;;;;;;17.65;63.91;101484.22;5086948;28;20433;-62
2022/07/29 06:16:40;;;;;;;8.43;5.75;;;;;;;17.74;63.77;101497.91;5089962;28;20028;-62
2022/07/29 06:19:05;;;;;;;10.43;5.07;;;;;;;17.90;63.29;101499.19;5090045;28;20040;-63
2022/07/29 06:21:31;;;;;;;9.55;5.50;;;;;;;17.97;62.98;101496.00;5090337;28;20024;-63
2022/07/29 06:23:56;;;;;;;6.93;5.38;;;;;;;18.00;62.98;101493.94;5091897;28;20097;-63
2022/07/29 06:26:22;;;;;;;9.18;5.15;;;;;;;18.03;62.81;101492.78;5090910;28;20028;-62
2022/07/29 06:28:48;;;;;;;6.80;4.57;;;;;;;18.02;62.40;101491.94;5090569;28;20024;-62
2022/07/29 06:31:14;;;;;;;6.75;4.82;;;;;;;18.01;63.08;101495.63;5072358;28;20449;-62
2022/07/29 06:33:39;;;;;;;7.05;4.82;;;;;;;17.95;62.70;101501.53;5086964;28;20032;-63
2022/07/29 06:36:05;;;;;;;8.07;5.20;;;;;;;17.95;63.10;101496.16;5095991;28;20059;-63
2022/07/29 06:38:31;;;;;;;8.48;5.22;;;;;;;17.83;63.48;101483.72;5094400;28;20043;-63
2022/07/29 06:43:33;;;;;;;10.05;4.90;;;;;;;17.96;63.01;101497.84;5094436;28;20139;-62
2022/07/29 06:46:07;;;;;;;10.68;5.28;;;;;;;17.92;63.09;101491.88;5092832;28;20027;-62
2022/07/29 06:48:33;;;;;;;11.15;5.70;;;;;;;17.96;63.42;101503.22;5094755;28;20463;-63
2022/07/29 06:50:59;;;;;;;10.80;5.85;;;;;;;17.78;64.01;101502.94;5093567;28;20103;-62
2022/07/29 06:53:27;;;;;;;13.45;5.80;;;;;;;17.68;64.36;101501.97;5093031;28;20483;-63
2022/07/29 06:55:53;;;;;;;9.10;5.20;;;;;;;17.74;64.02;101501.44;5092034;28;20364;-63
2022/07/29 06:58:20;;;;;;;8.32;5.13;;;;;;;17.70;63.67;101479.31;5090921;28;20074;-62
2022/07/29 07:00:49;;;;;;;9.77;4.65;;;;;;;17.91;63.68;101511.69;5093400;28;20048;-62
2022/07/29 07:03:15;;;;;;;;;;;;;;;18.12;62.63;101514.41;5094525;28;20040;-63
2022/07/29 07:05:41;;;;;;;10.43;5.65;;;;;;;17.99;64.29;101508.34;5095092;28;19919;-63
2022/07/29 07:08:06;;;;;;;10.77;5.35;;;;;;;17.93;64.25;101515.09;5094140;28;20115;-63
2022/07/29 07:10:32;;;;;;;6.72;5.22;;;;;;;17.91;64.25;101517.09;5093568;28;20031;-62
2022/07/29 07:12:58;;;;;;;7.57;5.15;;;;;;;17.87;64.54;101521.00;5092795;28;20069;-62
2022/07/29 07:15:24;;;;;;;7.10;5.22;;;;;;;17.86;64.34;101524.69;5092816;28;20165;-62
2022/07/29 07:17:50;;;;;;;7.22;4.72;;;;;;;17.96;64.73;101527.44;5094875;28;20044;-63
2022/07/29 07:20:16;;;;;;;7.28;4.80;;;;;;;18.04;64.67;101516.91;5093595;28;20036;-63
2022/07/29 07:22:42;;;;;;;8.57;5.00;;;;;;;18.35;64.20;101525.94;5093829;28;20102;-62
2022/07/29 07:25:08;;;;;;;8.52;4.95;;;;;;;18.65;63.17;101518.03;5093139;28;20024;-62
2022/07/29 07:27:34;;;;;;;5.97;4.82;;;;;;;18.85;62.36;101514.47;5092532;28;20171;-62
2022/07/29 07:30:00;;;;;;;7.38;4.82;;;;;;;19.08;61.52;101522.41;5093528;28;20027;-62
2022/07/29 07:32:26;;;;;;;6.40;4.65;;;;;;;19.10;61.20;101520.44;5092704;28;20047;-62
2022/07/29 07:34:52;;;;;;;8.07;4.93;;;;;;;19.29;60.30;101515.97;5092030;28;20031;-63
2022/07/29 07:37:20;;;;;;;7.88;5.40;;;;;;;19.51;60.73;101527.53;5094024;28;20036;-62
2022/07/29 07:39:46;;;;;;;8.82;4.75;;;;;;;19.65;59.02;101523.63;5092922;28;20024;-63
2022/07/29 07:42:12;;;;;;;11.98;4.85;;;;;;;19.74;58.48;101525.47;5059704;28;20483;-62
2022/07/29 07:44:39;;;;;;;6.47;4.35;;;;;;;20.02;58.09;101529.19;5092315;28;20028;-63
2022/07/29 07:47:05;;;;;;;6.25;4.57;;;;;;;20.13;57.58;101528.19;5093484;28;20032;-63
2022/07/29 07:49:30;;;;;;;7.93;4.55;;;;;;;20.15;58.31;101527.06;5091801;28;20035;-63
2022/07/29 07:51:58;;;;;;;8.85;4.45;;;;;;;20.28;56.89;101526.75;5092817;28;20111;-63
2022/07/29 07:54:24;;;;;;;7.35;4.88;;;;;;;20.42;56.84;101526.31;5091794;28;20051;-63
2022/07/29 07:56:52;;;;;;;5.53;4.38;;;;;;;20.50;56.18;101525.63;5074780;28;20036;-63
2022/07/29 07:59:18;;;;;;;9.60;4.63;;;;;;;20.68;56.12;101524.88;5091944;28;20093;-62
2022/07/29 08:01:43;;;;;;;9.65;4.93;;;;;;;20.72;56.30;101527.16;5093471;28;20118;-62
2022/07/29 08:04:09;;;;;;;10.07;4.97;;;;;;;20.85;56.78;101526.81;5074461;28;20028;-62
2022/07/29 08:06:37;;;;;;;7.32;4.10;;;;;;;20.88;56.05;101526.53;5074825;28;20028;-63
2022/07/29 08:09:08;;;;;;;6.97;4.45;;;;;;;20.97;55.68;101522.06;5092678;28;20046;-63
2022/07/29 08:11:33;;;;;;;7.00;4.45;;;;;;;21.17;55.09;101530.97;5094028;28;20024;-63
2022/07/29 08:14:01;;;;;;;8.35;4.85;;;;;;;21.20;55.30;101533.38;5093374;28;20023;-62
2022/07/29 08:16:26;;;;;;;8.40;4.40;;;;;;;21.39;55.19;101532.47;5096264;28;20421;-62
2022/07/29 08:18:56;;;;;;;7.65;4.72;;;;;;;21.41;54.54;101527.75;5092386;28;20036;-63
2022/07/29 08:21:23;;;;;;;6.60;4.47;;;;;;;21.43;54.28;101534.72;5092714;28;20085;-63
2022/07/29 08:23:50;;;;;;;6.00;4.55;;;;;;;21.65;53.59;101544.28;5092382;28;20111;-63
2022/07/29 08:26:16;;;;;;;9.20;4.50;;;;;;;21.74;53.27;101539.81;5092134;28;20126;-63
2022/07/29 08:28:49;;;;;;;9.55;4.50;;;;;;;21.92;53.51;101542.53;5094513;28;20054;-63
2022/07/29 08:31:15;;;;;;;9.13;4.18;;;;;;;22.05;51.75;101540.28;5092734;28;20023;-63
2022/07/29 08:33:41;;;;;;;6.63;4.00;;;;;;;21.97;51.36;101542.91;5090961;28;20034;-63
2022/07/29 08:36:09;;;;;;;8.02;4.57;;;;;;;21.92;52.00;101543.41;5092317;28;20058;-63
2022/07/29 08:38:35;;;;;;;4.95;3.95;;;;;;;22.13;52.29;101540.38;5090744;28;20110;-63
2022/07/29 08:41:01;;;;;;;10.18;4.57;;;;;;;22.26;52.03;101547.28;5092547;28;20103;-62
2022/07/29 08:43:30;;;;;;;7.05;4.50;;;;;;;22.35;52.45;101540.91;5092521;28;20394;-62
2022/07/29 08:45:57;;;;;;;10.38;4.15;;;;;;;22.43;51.93;101547.25;5091983;28;20070;-62
2022/07/29 08:48:24;;;;;;;7.97;4.47;;;;;;;22.51;51.15;101543.78;5091004;28;20138;-63
2022/07/29 08:50:55;;;;;;;10.45;4.25;;;;;;;22.69;50.25;101541.03;5091969;28;20035;-63
2022/07/29 08:53:23;;;;;;;9.65;4.30;;;;;;;22.81;49.29;101539.75;5090986;28;20483;-63
2022/07/29 08:55:49;;;;;;;7.05;4.65;;;;;;;22.79;51.15;101539.03;5092183;28;20054;-63
2022/07/29 08:58:16;;;;;;;9.05;4.45;;;;;;;23.01;51.14;101542.28;5091025;28;20032;-62
2022/07/29 09:00:45;;;;;;;11.30;4.95;;;;;;;23.12;49.48;101537.41;5092825;28;20616;-62
2022/07/29 09:03:12;;;;;;;;;;;;;;;23.42;50.30;101553.31;5090969;28;20031;-62
2022/07/29 09:05:41;;;;;;;9.85;4.35;;;;;;;23.36;48.46;101546.69;5094011;28;19920;-62
2022/07/29 09:08:07;;;;;;;8.60;4.22;;;;;;;23.43;49.08;101541.44;5091839;28;20024;-62
2022/07/29 09:10:35;;;;;;;7.47;4.10;;;;;;;23.42;49.29;101546.03;5092847;28;20027;-62
2022/07/29 09:13:01;;;;;;;10.02;4.97;;;;;;;23.58;48.66;101540.63;5091640;28;20049;-61
2022/07/29 09:15:26;;;;;;;8.55;4.50;;;;;;;23.69;49.58;101544.06;5089992;28;20032;-59
2022/07/29 09:17:55;;;;;;;5.90;3.70;;;;;;;23.80;47.42;101546.53;5091713;28;20122;-60
2022/07/29 09:20:22;;;;;;;6.25;3.60;;;;;;;23.89;47.29;101544.66;5091527;28;20077;-59
2022/07/29 09:22:49;;;;;;;12.65;3.92;;;;;;;23.90;47.08;101543.66;5091652;28;20020;-60
2022/07/29 09:25:38;;;;;;;9.07;4.00;;;;;;;24.06;47.07;101546.41;5108348;28;20043;-59
2022/07/29 09:28:10;;;;;;;6.93;3.60;;;;;;;24.09;46.52;101559.66;5110386;28;20028;-57
2022/07/29 09:30:58;;;;;;;7.10;3.35;;;;;;;24.36;47.58;101549.47;5090801;28;20020;-59
2022/07/29 09:33:34;;;;;;;8.20;3.43;;;;;;;24.48;47.17;101535.38;5091575;28;20061;-60
2022/07/29 09:36:07;;;;;;;6.35;3.03;;;;;;;24.59;45.46;101558.66;5091207;28;20285;-60
2022/07/29 09:38:35;;;;;;;6.45;3.03;;;;;;;24.72;44.77;101560.00;5092772;28;20024;-60
2022/07/29 09:41:02;;;;;;;5.82;3.00;;;;;;;24.95;44.28;101555.53;5089256;28;20028;-61
2022/07/29 09:43:27;;;;;;;8.57;2.90;;;;;;;25.06;44.35;101551.59;5091383;28;20028;-60
2022/07/29 09:45:53;;;;;;;8.18;3.55;;;;;;;25.13;44.33;101550.75;5091078;28;20035;-60
2022/07/29 09:48:24;;;;;;;6.45;3.90;;;;;;;25.06;43.51;101551.59;5090213;28;20032;-60
2022/07/29 09:50:52;;;;;;;4.57;2.97;;;;;;;25.26;43.69;101552.91;5092030;28;20039;-59
2022/07/29 09:53:37;;;;;;;8.52;3.10;;;;;;;25.36;44.73;101547.28;5089995;28;20027;-60
2022/07/29 09:56:04;;;;;;;8.65;3.20;;;;;;;25.28;43.55;101552.75;5090645;28;20024;-60
2022/07/29 09:58:34;;;;;;;5.20;2.83;;;;;;;25.38;43.27;101545.19;5091048;28;20054;-60
2022/07/29 10:01:00;;;;;;;5.75;2.70;;;;;;;25.57;42.51;101546.66;5091872;28;20495;-60
2022/07/29 10:03:26;;;;;;;5.15;2.80;;;;;;;25.70;42.64;101548.78;5091191;28;20024;-60
2022/07/29 10:06:11;;;;;;;9.07;3.13;;;;;;;25.86;42.27;101543.28;5089640;28;20036;-60
2022/07/29 10:08:37;;;;;;;5.68;2.60;;;;;;;26.01;40.61;101548.81;5091082;28;20471;-60
2022/07/29 10:11:16;;;;;;;7.40;2.80;;;;;;;25.99;40.22;101551.72;5095788;28;20089;-60
2022/07/29 10:13:43;;;;;;;7.63;3.00;;;;;;;26.05;40.24;101539.22;5096711;28;20015;-60
2022/07/29 10:16:09;;;;;;;8.38;2.85;;;;;;;26.20;40.44;101542.00;5095098;28;20495;-60
2022/07/29 10:18:37;;;;;;;9.25;2.53;;;;;;;26.36;39.94;101541.06;5094928;28;20024;-60
2022/07/29 10:21:03;;;;;;;7.95;2.95;;;;;;;26.60;39.70;101529.94;5094376;28;20028;-60
2022/07/29 10:23:33;;;;;;;37.35;5.28;;;;;;;26.66;38.45;101542.00;5093281;28;20460;-59
2022/07/29 10:25:58;;;;;;;18.42;3.13;;;;;;;26.73;37.89;101545.66;5095288;28;20051;-58
2022/07/29 10:28:24;;;;;;;5.90;3.00;;;;;;;26.81;37.90;101537.38;5094900;28;20052;-59
2022/07/29 10:30:52;;;;;;;6.65;2.50;;;;;;;26.97;37.38;101536.34;5094530;28;20032;-58
2022/07/29 10:33:27;;;;;;;8.60;2.63;;;;;;;27.03;37.43;101532.91;5103709;28;20031;-60
2022/07/29 10:36:07;;;;;;;4.47;2.33;;;;;;;27.21;38.44;101534.41;5103926;28;20309;-59
2022/07/29 10:38:36;;;;;;;7.82;3.00;;;;;;;27.26;37.90;101540.16;5094674;28;20031;-60
2022/07/29 10:41:26;;;;;;;6.88;2.72;;;;;;;27.48;37.07;101533.72;5111237;28;20024;-59
2022/07/29 10:44:03;;;;;;;16.67;4.00;;;;;;;27.52;36.80;101528.72;5114708;27;20031;-59
2022/07/29 10:46:37;;;;;;;5.60;2.55;;;;;;;27.48;37.29;101532.88;5103751;28;20035;-59
2022/07/29 10:49:17;;;;;;;7.57;2.80;;;;;;;27.54;37.08;101532.09;5094414;28;20486;-59
2022/07/29 10:52:01;;;;;;;5.22;2.65;;;;;;;27.59;36.39;101529.63;5093206;28;20055;-59
2022/07/29 10:54:35;;;;;;;5.25;2.47;;;;;;;27.72;36.67;101524.31;5094101;28;20020;-60
2022/07/29 10:57:25;;;;;;;8.95;3.20;;;;;;;27.93;37.25;101523.53;5093951;28;20165;-60
2022/07/29 11:00:11;;;;;;;7.22;3.03;;;;;;;28.10;36.61;101528.75;5092652;28;20107;-59
2022/07/29 11:02:39;;;;;;;6.75;2.50;;;;;;;28.11;36.21;101530.44;5093982;28;20044;-60
2022/07/29 11:05:06;;;;;;;6.90;2.30;;;;;;;28.05;36.42;101530.16;5093996;28;20510;-59
2022/07/29 11:07:35;;;;;;;7.00;2.35;;;;;;;28.27;34.43;101528.28;5094250;28;20032;-59
2022/07/29 11:10:18;;;;;;;5.65;2.72;;;;;;;28.30;34.67;101527.88;5071809;28;20039;-60
2022/07/29 11:12:46;;;;;;;3.60;2.53;;;;;;;28.44;35.07;101522.53;5054466;28;20032;-59
2022/07/29 11:15:18;;;;;;;8.30;3.25;;;;;;;28.44;34.17;101525.28;5070087;28;20029;-59
2022/07/29 11:18:01;;;;;;;5.00;2.17;;;;;;;28.66;34.80;101526.94;5054730;28;20031;-59
2022/07/29 11:20:49;;;;;;;7.75;2.78;;;;;;;28.84;35.04;101522.84;5072112;28;20052;-60
2022/07/29 11:23:24;;;;;;;;;;;;;;;29.21;34.71;101518.88;5071575;28;20060;-59
2022/07/29 11:26:12;;;;;;;7.50;2.67;;;;;;;29.04;34.11;101520.25;5053558;28;20457;-60
2022/07/29 11:28:51;;;;;;;6.03;2.28;;;;;;;29.08;34.69;101519.63;5072510;28;20036;-60
2022/07/29 11:31:42;;;;;;;4.50;2.08;;;;;;;29.03;34.27;101515.81;5054084;28;20043;-60
2022/07/29 11:34:20;;;;;;;3.72;1.70;;;;;;;29.39;34.24;101518.31;5070524;28;20025;-59
2022/07/29 11:37:11;;;;;;;5.72;1.63;;;;;;;29.57;33.71;101515.84;5071145;28;20040;-60
2022/07/29 11:39:39;;;;;;;5.50;1.75;;;;;;;29.38;32.61;101513.84;5056395;28;20547;-59
2022/07/29 11:42:16;;;;;;;4.90;1.42;;;;;;;29.63;32.68;101519.69;5090130;28;20106;-59